sensor_id;sensor_type;location;lat;lon;timestamp;P1;durP1;ratioP1;P2;durP2;ratioP2
67965;SDS011;54749;47.850;9.002;2023-04-15T00:00:59;3.72;;;1.25;;
67965;SDS011;54749;47.850;9.002;2023-04-15T00:03:26;4.72;;;1.60;;
67965;SDS011;54749;47.850;9.002;2023-04-15T00:05:54;6.15;;;1.60;;
67965;SDS011;54749;47.850;9.002;2023-04-15T00:08:21;5.03;;;1.38;;
67965;SDS011;54749;47.850;9.002;2023-04-15T00:10:49;4.67;;;1.50;;
67965;SDS011;54749;47.850;9.002;2023-04-15T00:13:16;6.13;;;1.50;;
67965;SDS011;54749;47.850;9.002;2023-04-15T00:15:44;6.38;;;1.63;;
67965;SDS011;54749;47.850;9.002;2023-04-15T00:18:10;8.10;;;2.88;;
67965;SDS011;54749;47.850;9.002;2023-04-15T00:20:38;12.52;;;2.83;;
67965;SDS011;54749;47.850;9.002;2023-04-15T00:23:05;14.53;;;3.60;;
67965;SDS011;54749;47.850;9.002;2023-04-15T00:25:33;8.23;;;2.80;;
67965;SDS011;54749;47.850;9.002;2023-04-15T00:28:00;11.07;;;3.47;;
67965;SDS011;54749;47.850;9.002;2023-04-15T00:30:27;8.63;;;2.60;;
67965;SDS011;54749;47.850;9.002;2023-04-15T00:32:54;7.35;;;2.20;;
67965;SDS011;54749;47.850;9.002;2023-04-15T00:35:22;8.63;;;2.13;;
67965;SDS011;54749;47.850;9.002;2023-04-15T00:37:49;5.47;;;2.05;;
67965;SDS011;54749;47.850;9.002;2023-04-15T00:40:17;6.93;;;2.10;;
67965;SDS011;54749;47.850;9.002;2023-04-15T00:42:46;5.90;;;2.10;;
67965;SDS011;54749;47.850;9.002;2023-04-15T00:45:13;6.20;;;2.25;;
67965;SDS011;54749;47.850;9.002;2023-04-15T00:47:41;9.33;;;2.43;;
67965;SDS011;54749;47.850;9.002;2023-04-15T00:50:10;7.05;;;2.30;;
67965;SDS011;54749;47.850;9.002;2023-04-15T00:52:38;7.03;;;2.55;;
67965;SDS011;54749;47.850;9.002;2023-04-15T00:55:07;8.70;;;2.50;;
67965;SDS011;54749;47.850;9.002;2023-04-15T00:57:35;9.07;;;2.75;;
67965;SDS011;54749;47.850;9.002;2023-04-15T01:00:02;8.90;;;2.60;;
67965;SDS011;54749;47.850;9.002;2023-04-15T01:02:31;8.68;;;3.13;;
67965;SDS011;54749;47.850;9.002;2023-04-15T01:05:01;9.32;;;3.45;;
67965;SDS011;54749;47.850;9.002;2023-04-15T01:07:30;9.93;;;3.08;;
67965;SDS011;54749;47.850;9.002;2023-04-15T01:09:57;7.80;;;2.70;;
67965;SDS011;54749;47.850;9.002;2023-04-15T01:12:25;7.73;;;2.30;;
67965;SDS011;54749;47.850;9.002;2023-04-15T01:14:54;5.65;;;1.95;;
67965;SDS011;54749;47.850;9.002;2023-04-15T01:17:21;4.25;;;1.60;;
67965;SDS011;54749;47.850;9.002;2023-04-15T01:19:51;4.93;;;1.73;;
67965;SDS011;54749;47.850;9.002;2023-04-15T01:22:18;8.38;;;2.53;;
67965;SDS011;54749;47.850;9.002;2023-04-15T01:24:48;7.53;;;2.90;;
67965;SDS011;54749;47.850;9.002;2023-04-15T01:27:21;7.07;;;2.20;;
67965;SDS011;54749;47.850;9.002;2023-04-15T01:29:49;7.78;;;2.70;;
67965;SDS011;54749;47.850;9.002;2023-04-15T01:32:16;9.13;;;2.63;;
67965;SDS011;54749;47.850;9.002;2023-04-15T01:34:43;6.80;;;2.10;;
67965;SDS011;54749;47.850;9.002;2023-04-15T01:37:10;6.90;;;1.70;;
67965;SDS011;54749;47.850;9.002;2023-04-15T01:39:37;5.25;;;1.60;;
67965;SDS011;54749;47.850;9.002;2023-04-15T01:42:05;6.20;;;1.70;;
67965;SDS011;54749;47.850;9.002;2023-04-15T01:44:32;4.68;;;1.45;;
67965;SDS011;54749;47.850;9.002;2023-04-15T01:46:59;4.00;;;1.20;;
67965;SDS011;54749;47.850;9.002;2023-04-15T01:49:27;3.83;;;1.30;;
67965;SDS011;54749;47.850;9.002;2023-04-15T01:51:54;5.22;;;1.10;;
67965;SDS011;54749;47.850;9.002;2023-04-15T01:54:21;4.72;;;1.38;;
67965;SDS011;54749;47.850;9.002;2023-04-15T01:56:50;10.43;;;2.30;;
67965;SDS011;54749;47.850;9.002;2023-04-15T01:59:17;7.65;;;2.40;;
67965;SDS011;54749;47.850;9.002;2023-04-15T02:01:44;10.60;;;2.70;;
67965;SDS011;54749;47.850;9.002;2023-04-15T02:04:12;9.50;;;2.50;;
67965;SDS011;54749;47.850;9.002;2023-04-15T02:06:42;5.72;;;2.10;;
67965;SDS011;54749;47.850;9.002;2023-04-15T02:09:10;4.85;;;2.03;;
67965;SDS011;54749;47.850;9.002;2023-04-15T02:11:37;7.30;;;2.13;;
67965;SDS011;54749;47.850;9.002;2023-04-15T02:14:05;5.63;;;1.93;;
67965;SDS011;54749;47.850;9.002;2023-04-15T02:16:32;4.72;;;1.50;;
67965;SDS011;54749;47.850;9.002;2023-04-15T02:19:00;5.07;;;1.48;;
67965;SDS011;54749;47.850;9.002;2023-04-15T02:21:28;5.85;;;1.88;;
67965;SDS011;54749;47.850;9.002;2023-04-15T02:23:56;5.75;;;2.00;;
67965;SDS011;54749;47.850;9.002;2023-04-15T02:26:23;9.97;;;2.37;;
67965;SDS011;54749;47.850;9.002;2023-04-15T02:28:53;9.48;;;2.60;;
67965;SDS011;54749;47.850;9.002;2023-04-15T02:31:20;8.27;;;2.40;;
67965;SDS011;54749;47.850;9.002;2023-04-15T02:33:47;10.35;;;2.70;;
67965;SDS011;54749;47.850;9.002;2023-04-15T02:36:15;8.60;;;2.80;;
67965;SDS011;54749;47.850;9.002;2023-04-15T02:38:42;7.53;;;2.90;;
67965;SDS011;54749;47.850;9.002;2023-04-15T02:41:11;10.23;;;2.80;;
67965;SDS011;54749;47.850;9.002;2023-04-15T02:43:39;8.95;;;2.90;;
67965;SDS011;54749;47.850;9.002;2023-04-15T02:46:08;8.63;;;2.65;;
67965;SDS011;54749;47.850;9.002;2023-04-15T02:48:38;6.28;;;2.60;;
67965;SDS011;54749;47.850;9.002;2023-04-15T02:51:16;5.80;;;2.57;;
67965;SDS011;54749;47.850;9.002;2023-04-15T02:53:49;6.35;;;2.47;;
67965;SDS011;54749;47.850;9.002;2023-04-15T02:56:16;7.13;;;2.70;;
67965;SDS011;54749;47.850;9.002;2023-04-15T02:58:45;8.60;;;2.60;;
67965;SDS011;54749;47.850;9.002;2023-04-15T03:01:12;5.60;;;2.28;;
67965;SDS011;54749;47.850;9.002;2023-04-15T03:03:40;5.47;;;2.00;;
67965;SDS011;54749;47.850;9.002;2023-04-15T03:06:07;5.03;;;1.70;;
67965;SDS011;54749;47.850;9.002;2023-04-15T03:08:35;5.85;;;1.90;;
67965;SDS011;54749;47.850;9.002;2023-04-15T03:11:03;8.10;;;2.88;;
67965;SDS011;54749;47.850;9.002;2023-04-15T03:13:32;7.70;;;2.67;;
67965;SDS011;54749;47.850;9.002;2023-04-15T03:16:05;7.83;;;2.70;;
67965;SDS011;54749;47.850;9.002;2023-04-15T03:18:33;10.15;;;2.92;;
67965;SDS011;54749;47.850;9.002;2023-04-15T03:21:01;8.00;;;2.90;;
67965;SDS011;54749;47.850;9.002;2023-04-15T03:23:33;8.52;;;2.70;;
67965;SDS011;54749;47.850;9.002;2023-04-15T03:26:01;11.02;;;2.60;;
67965;SDS011;54749;47.850;9.002;2023-04-15T03:28:30;7.07;;;2.23;;
67965;SDS011;54749;47.850;9.002;2023-04-15T03:30:59;7.88;;;2.95;;
67965;SDS011;54749;47.850;9.002;2023-04-15T03:33:26;7.38;;;2.60;;
67965;SDS011;54749;47.850;9.002;2023-04-15T03:35:53;10.68;;;2.60;;
67965;SDS011;54749;47.850;9.002;2023-04-15T03:38:20;7.93;;;2.70;;
67965;SDS011;54749;47.850;9.002;2023-04-15T03:40:47;8.90;;;2.70;;
67965;SDS011;54749;47.850;9.002;2023-04-15T03:43:14;8.00;;;2.22;;
67965;SDS011;54749;47.850;9.002;2023-04-15T03:45:42;9.13;;;2.20;;
67965;SDS011;54749;47.850;9.002;2023-04-15T03:48:09;7.57;;;2.75;;
67965;SDS011;54749;47.850;9.002;2023-04-15T03:50:43;5.70;;;2.28;;
67965;SDS011;54749;47.850;9.002;2023-04-15T03:53:12;6.90;;;2.20;;
67965;SDS011;54749;47.850;9.002;2023-04-15T03:55:38;6.45;;;2.47;;
67965;SDS011;54749;47.850;9.002;2023-04-15T03:58:06;8.52;;;2.78;;
67965;SDS011;54749;47.850;9.002;2023-04-15T04:00:33;9.27;;;2.42;;
67965;SDS011;54749;47.850;9.002;2023-04-15T04:03:00;6.88;;;1.95;;
67965;SDS011;54749;47.850;9.002;2023-04-15T04:05:28;7.50;;;2.17;;
67965;SDS011;54749;47.850;9.002;2023-04-15T04:07:55;9.38;;;2.25;;
67965;SDS011;54749;47.850;9.002;2023-04-15T04:10:22;7.40;;;2.40;;
67965;SDS011;54749;47.850;9.002;2023-04-15T04:12:50;6.38;;;2.70;;
67965;SDS011;54749;47.850;9.002;2023-04-15T04:15:16;5.05;;;2.13;;
67965;SDS011;54749;47.850;9.002;2023-04-15T04:17:44;5.03;;;2.00;;
67965;SDS011;54749;47.850;9.002;2023-04-15T04:20:11;10.90;;;3.40;;
67965;SDS011;54749;47.850;9.002;2023-04-15T04:22:39;9.18;;;3.08;;
67965;SDS011;54749;47.850;9.002;2023-04-15T04:25:07;8.90;;;3.25;;
67965;SDS011;54749;47.850;9.002;2023-04-15T04:27:36;7.85;;;2.92;;
67965;SDS011;54749;47.850;9.002;2023-04-15T04:30:03;11.40;;;3.10;;
67965;SDS011;54749;47.850;9.002;2023-04-15T04:32:31;8.95;;;2.72;;
67965;SDS011;54749;47.850;9.002;2023-04-15T04:34:58;8.27;;;2.97;;
67965;SDS011;54749;47.850;9.002;2023-04-15T04:37:25;8.88;;;2.85;;
67965;SDS011;54749;47.850;9.002;2023-04-15T04:39:52;9.55;;;3.13;;
67965;SDS011;54749;47.850;9.002;2023-04-15T04:42:20;8.23;;;3.10;;
67965;SDS011;54749;47.850;9.002;2023-04-15T04:44:47;11.77;;;3.15;;
67965;SDS011;54749;47.850;9.002;2023-04-15T04:47:14;9.38;;;3.63;;
67965;SDS011;54749;47.850;9.002;2023-04-15T04:49:42;10.80;;;3.08;;
67965;SDS011;54749;47.850;9.002;2023-04-15T04:52:09;9.77;;;3.33;;
67965;SDS011;54749;47.850;9.002;2023-04-15T04:54:36;9.57;;;3.83;;
67965;SDS011;54749;47.850;9.002;2023-04-15T04:57:03;12.70;;;3.60;;
67965;SDS011;54749;47.850;9.002;2023-04-15T04:59:30;12.18;;;3.10;;
67965;SDS011;54749;47.850;9.002;2023-04-15T05:01:58;9.07;;;3.53;;
67965;SDS011;54749;47.850;9.002;2023-04-15T05:04:25;8.13;;;3.05;;
67965;SDS011;54749;47.850;9.002;2023-04-15T05:06:52;6.47;;;2.90;;
67965;SDS011;54749;47.850;9.002;2023-04-15T05:09:19;7.40;;;2.70;;
67965;SDS011;54749;47.850;9.002;2023-04-15T05:11:46;9.63;;;3.00;;
67965;SDS011;54749;47.850;9.002;2023-04-15T05:14:13;8.88;;;3.00;;
67965;SDS011;54749;47.850;9.002;2023-04-15T05:16:40;7.50;;;3.30;;
67965;SDS011;54749;47.850;9.002;2023-04-15T05:19:07;10.20;;;2.67;;
67965;SDS011;54749;47.850;9.002;2023-04-15T05:21:35;10.68;;;2.97;;
67965;SDS011;54749;47.850;9.002;2023-04-15T05:24:05;11.07;;;2.90;;
67965;SDS011;54749;47.850;9.002;2023-04-15T05:26:32;7.93;;;2.80;;
67965;SDS011;54749;47.850;9.002;2023-04-15T05:28:59;8.93;;;3.13;;
67965;SDS011;54749;47.850;9.002;2023-04-15T05:31:28;6.93;;;2.90;;
67965;SDS011;54749;47.850;9.002;2023-04-15T05:33:55;7.75;;;2.53;;
67965;SDS011;54749;47.850;9.002;2023-04-15T05:36:22;5.90;;;2.10;;
67965;SDS011;54749;47.850;9.002;2023-04-15T05:38:49;9.18;;;2.90;;
67965;SDS011;54749;47.850;9.002;2023-04-15T05:41:17;8.52;;;2.83;;
67965;SDS011;54749;47.850;9.002;2023-04-15T05:43:45;8.40;;;2.83;;
67965;SDS011;54749;47.850;9.002;2023-04-15T05:46:12;6.88;;;2.65;;
67965;SDS011;54749;47.850;9.002;2023-04-15T05:48:39;6.53;;;2.80;;
67965;SDS011;54749;47.850;9.002;2023-04-15T05:51:07;7.32;;;2.80;;
67965;SDS011;54749;47.850;9.002;2023-04-15T05:53:35;7.05;;;2.88;;
67965;SDS011;54749;47.850;9.002;2023-04-15T05:56:02;7.97;;;3.00;;
67965;SDS011;54749;47.850;9.002;2023-04-15T05:58:30;8.38;;;2.80;;
67965;SDS011;54749;47.850;9.002;2023-04-15T06:00:57;10.45;;;2.72;;
67965;SDS011;54749;47.850;9.002;2023-04-15T06:03:24;8.50;;;2.72;;
67965;SDS011;54749;47.850;9.002;2023-04-15T06:05:52;8.60;;;2.80;;
67965;SDS011;54749;47.850;9.002;2023-04-15T06:08:19;7.47;;;3.03;;
67965;SDS011;54749;47.850;9.002;2023-04-15T06:10:47;7.35;;;2.70;;
67965;SDS011;54749;47.850;9.002;2023-04-15T06:13:14;9.10;;;2.70;;
67965;SDS011;54749;47.850;9.002;2023-04-15T06:15:42;5.55;;;2.20;;
67965;SDS011;54749;47.850;9.002;2023-04-15T06:18:10;9.63;;;2.70;;
67965;SDS011;54749;47.850;9.002;2023-04-15T06:20:37;8.67;;;3.07;;
67965;SDS011;54749;47.850;9.002;2023-04-15T06:23:04;6.43;;;2.80;;
67965;SDS011;54749;47.850;9.002;2023-04-15T06:25:32;7.93;;;3.03;;
67965;SDS011;54749;47.850;9.002;2023-04-15T06:27:59;6.32;;;2.30;;
67965;SDS011;54749;47.850;9.002;2023-04-15T06:30:26;5.57;;;2.40;;
67965;SDS011;54749;47.850;9.002;2023-04-15T06:32:53;7.07;;;2.70;;
67965;SDS011;54749;47.850;9.002;2023-04-15T06:35:21;8.02;;;2.60;;
67965;SDS011;54749;47.850;9.002;2023-04-15T06:37:48;7.13;;;2.10;;
67965;SDS011;54749;47.850;9.002;2023-04-15T06:40:16;7.47;;;2.58;;
67965;SDS011;54749;47.850;9.002;2023-04-15T06:42:43;7.45;;;2.80;;
67965;SDS011;54749;47.850;9.002;2023-04-15T06:45:10;7.10;;;2.80;;
67965;SDS011;54749;47.850;9.002;2023-04-15T06:47:37;9.00;;;2.50;;
67965;SDS011;54749;47.850;9.002;2023-04-15T06:50:05;9.50;;;3.22;;
67965;SDS011;54749;47.850;9.002;2023-04-15T06:52:32;8.45;;;2.85;;
67965;SDS011;54749;47.850;9.002;2023-04-15T06:54:59;7.78;;;2.90;;
67965;SDS011;54749;47.850;9.002;2023-04-15T06:57:27;8.10;;;2.87;;
67965;SDS011;54749;47.850;9.002;2023-04-15T06:59:54;8.98;;;3.03;;
67965;SDS011;54749;47.850;9.002;2023-04-15T07:02:21;7.35;;;2.97;;
67965;SDS011;54749;47.850;9.002;2023-04-15T07:04:49;8.35;;;2.70;;
67965;SDS011;54749;47.850;9.002;2023-04-15T07:07:16;9.25;;;2.88;;
67965;SDS011;54749;47.850;9.002;2023-04-15T07:09:44;5.83;;;2.40;;
67965;SDS011;54749;47.850;9.002;2023-04-15T07:12:10;8.05;;;2.78;;
67965;SDS011;54749;47.850;9.002;2023-04-15T07:14:38;6.78;;;2.88;;
67965;SDS011;54749;47.850;9.002;2023-04-15T07:17:05;9.70;;;3.03;;
67965;SDS011;54749;47.850;9.002;2023-04-15T07:19:32;6.70;;;2.67;;
67965;SDS011;54749;47.850;9.002;2023-04-15T07:21:59;7.60;;;3.10;;
67965;SDS011;54749;47.850;9.002;2023-04-15T07:24:26;9.95;;;3.00;;
67965;SDS011;54749;47.850;9.002;2023-04-15T07:26:54;5.38;;;2.38;;
67965;SDS011;54749;47.850;9.002;2023-04-15T07:29:27;5.88;;;2.60;;
67965;SDS011;54749;47.850;9.002;2023-04-15T07:31:54;10.27;;;2.92;;
67965;SDS011;54749;47.850;9.002;2023-04-15T07:34:23;7.07;;;2.50;;
67965;SDS011;54749;47.850;9.002;2023-04-15T07:36:50;5.25;;;2.33;;
67965;SDS011;54749;47.850;9.002;2023-04-15T07:39:17;6.03;;;2.30;;
67965;SDS011;54749;47.850;9.002;2023-04-15T07:41:45;5.57;;;2.35;;
67965;SDS011;54749;47.850;9.002;2023-04-15T07:44:12;6.13;;;2.80;;
67965;SDS011;54749;47.850;9.002;2023-04-15T07:46:39;7.47;;;2.80;;
67965;SDS011;54749;47.850;9.002;2023-04-15T07:49:07;9.93;;;2.72;;
67965;SDS011;54749;47.850;9.002;2023-04-15T07:51:34;9.55;;;3.95;;
67965;SDS011;54749;47.850;9.002;2023-04-15T07:54:01;8.30;;;3.25;;
67965;SDS011;54749;47.850;9.002;2023-04-15T07:56:28;8.10;;;3.42;;
67965;SDS011;54749;47.850;9.002;2023-04-15T07:58:56;9.77;;;3.57;;
67965;SDS011;54749;47.850;9.002;2023-04-15T08:01:23;8.73;;;3.30;;
67965;SDS011;54749;47.850;9.002;2023-04-15T08:03:50;9.40;;;2.85;;
67965;SDS011;54749;47.850;9.002;2023-04-15T08:06:18;9.38;;;2.92;;
67965;SDS011;54749;47.850;9.002;2023-04-15T08:08:45;7.53;;;2.80;;
67965;SDS011;54749;47.850;9.002;2023-04-15T08:11:12;6.93;;;2.77;;
67965;SDS011;54749;47.850;9.002;2023-04-15T08:13:40;6.97;;;2.53;;
67965;SDS011;54749;47.850;9.002;2023-04-15T08:16:21;7.97;;;2.75;;
67965;SDS011;54749;47.850;9.002;2023-04-15T08:18:51;7.43;;;2.30;;
67965;SDS011;54749;47.850;9.002;2023-04-15T08:21:21;6.70;;;2.40;;
67965;SDS011;54749;47.850;9.002;2023-04-15T08:23:49;7.03;;;2.57;;
67965;SDS011;54749;47.850;9.002;2023-04-15T08:26:17;7.85;;;2.20;;
67965;SDS011;54749;47.850;9.002;2023-04-15T08:28:45;6.32;;;2.50;;
67965;SDS011;54749;47.850;9.002;2023-04-15T08:31:13;10.00;;;3.80;;
67965;SDS011;54749;47.850;9.002;2023-04-15T08:33:41;10.80;;;4.70;;
67965;SDS011;54749;47.850;9.002;2023-04-15T08:36:08;9.27;;;3.90;;
67965;SDS011;54749;47.850;9.002;2023-04-15T08:38:36;8.77;;;3.55;;
67965;SDS011;54749;47.850;9.002;2023-04-15T08:41:06;10.05;;;3.50;;
67965;SDS011;54749;47.850;9.002;2023-04-15T08:43:37;8.98;;;3.53;;
67965;SDS011;54749;47.850;9.002;2023-04-15T08:46:12;9.10;;;3.42;;
67965;SDS011;54749;47.850;9.002;2023-04-15T08:48:40;8.50;;;3.40;;
67965;SDS011;54749;47.850;9.002;2023-04-15T08:51:08;9.43;;;3.70;;
67965;SDS011;54749;47.850;9.002;2023-04-15T08:53:36;10.88;;;3.30;;
67965;SDS011;54749;47.850;9.002;2023-04-15T08:56:04;9.40;;;2.75;;
67965;SDS011;54749;47.850;9.002;2023-04-15T08:58:36;7.50;;;3.17;;
67965;SDS011;54749;47.850;9.002;2023-04-15T09:01:03;9.07;;;3.10;;
67965;SDS011;54749;47.850;9.002;2023-04-15T09:03:31;9.40;;;2.90;;
67965;SDS011;54749;47.850;9.002;2023-04-15T09:05:58;8.45;;;2.65;;
67965;SDS011;54749;47.850;9.002;2023-04-15T09:08:25;8.82;;;3.13;;
67965;SDS011;54749;47.850;9.002;2023-04-15T09:10:52;7.10;;;2.90;;
67965;SDS011;54749;47.850;9.002;2023-04-15T09:13:20;11.20;;;2.72;;
67965;SDS011;54749;47.850;9.002;2023-04-15T09:15:47;7.53;;;3.10;;
67965;SDS011;54749;47.850;9.002;2023-04-15T09:18:25;7.22;;;3.20;;
67965;SDS011;54749;47.850;9.002;2023-04-15T09:20:54;8.65;;;3.00;;
67965;SDS011;54749;47.850;9.002;2023-04-15T09:23:22;11.43;;;3.80;;
67965;SDS011;54749;47.850;9.002;2023-04-15T09:25:49;8.27;;;3.03;;
67965;SDS011;54749;47.850;9.002;2023-04-15T09:28:22;9.87;;;3.30;;
67965;SDS011;54749;47.850;9.002;2023-04-15T09:30:50;9.65;;;3.17;;
67965;SDS011;54749;47.850;9.002;2023-04-15T09:33:21;7.82;;;2.83;;
67965;SDS011;54749;47.850;9.002;2023-04-15T09:36:01;6.68;;;2.63;;
67965;SDS011;54749;47.850;9.002;2023-04-15T09:38:31;6.05;;;2.08;;
67965;SDS011;54749;47.850;9.002;2023-04-15T09:40:58;13.00;;;3.10;;
67965;SDS011;54749;47.850;9.002;2023-04-15T09:43:38;10.00;;;2.78;;
67965;SDS011;54749;47.850;9.002;2023-04-15T09:46:06;10.55;;;3.40;;
67965;SDS011;54749;47.850;9.002;2023-04-15T09:48:33;7.13;;;2.85;;
67965;SDS011;54749;47.850;9.002;2023-04-15T09:51:02;9.10;;;3.08;;
67965;SDS011;54749;47.850;9.002;2023-04-15T09:53:29;7.67;;;2.67;;
67965;SDS011;54749;47.850;9.002;2023-04-15T09:55:59;5.65;;;2.25;;
67965;SDS011;54749;47.850;9.002;2023-04-15T09:58:29;6.40;;;2.42;;
67965;SDS011;54749;47.850;9.002;2023-04-15T10:00:58;7.40;;;2.80;;
67965;SDS011;54749;47.850;9.002;2023-04-15T10:03:27;7.95;;;2.35;;
67965;SDS011;54749;47.850;9.002;2023-04-15T10:05:57;6.53;;;2.90;;
67965;SDS011;54749;47.850;9.002;2023-04-15T10:08:27;10.52;;;3.10;;
67965;SDS011;54749;47.850;9.002;2023-04-15T10:10:55;10.18;;;3.63;;
67965;SDS011;54749;47.850;9.002;2023-04-15T10:13:24;8.07;;;3.47;;
67965;SDS011;54749;47.850;9.002;2023-04-15T10:18:47;7.50;;;3.20;;
67965;SDS011;54749;47.850;9.002;2023-04-15T10:21:20;8.93;;;3.92;;
67965;SDS011;54749;47.850;9.002;2023-04-15T10:23:49;7.55;;;3.00;;
67965;SDS011;54749;47.850;9.002;2023-04-15T10:26:17;7.07;;;2.83;;
67965;SDS011;54749;47.850;9.002;2023-04-15T10:28:44;6.57;;;2.58;;
67965;SDS011;54749;47.850;9.002;2023-04-15T10:31:14;6.40;;;2.50;;
67965;SDS011;54749;47.850;9.002;2023-04-15T10:33:43;7.75;;;3.00;;
67965;SDS011;54749;47.850;9.002;2023-04-15T10:36:10;7.45;;;2.38;;
67965;SDS011;54749;47.850;9.002;2023-04-15T10:38:39;6.38;;;2.08;;
67965;SDS011;54749;47.850;9.002;2023-04-15T10:41:13;5.43;;;2.13;;
67965;SDS011;54749;47.850;9.002;2023-04-15T10:44:03;6.57;;;2.03;;
67965;SDS011;54749;47.850;9.002;2023-04-15T10:46:40;5.80;;;2.05;;
67965;SDS011;54749;47.850;9.002;2023-04-15T10:49:10;8.18;;;3.00;;
67965;SDS011;54749;47.850;9.002;2023-04-15T10:51:40;7.00;;;2.80;;
67965;SDS011;54749;47.850;9.002;2023-04-15T10:54:12;8.90;;;2.85;;
67965;SDS011;54749;47.850;9.002;2023-04-15T10:59:37;8.45;;;2.67;;
67965;SDS011;54749;47.850;9.002;2023-04-15T11:02:40;6.70;;;2.55;;
67965;SDS011;54749;47.850;9.002;2023-04-15T11:05:11;7.85;;;2.97;;
67965;SDS011;54749;47.850;9.002;2023-04-15T11:12:43;8.77;;;2.85;;
67965;SDS011;54749;47.850;9.002;2023-04-15T11:20:37;7.90;;;3.00;;
67965;SDS011;54749;47.850;9.002;2023-04-15T11:23:05;8.57;;;2.77;;
67965;SDS011;54749;47.850;9.002;2023-04-15T11:25:41;7.63;;;2.47;;
67965;SDS011;54749;47.850;9.002;2023-04-15T11:28:09;7.30;;;2.60;;
67965;SDS011;54749;47.850;9.002;2023-04-15T11:30:38;6.55;;;2.65;;
67965;SDS011;54749;47.850;9.002;2023-04-15T11:33:06;8.88;;;2.90;;
67965;SDS011;54749;47.850;9.002;2023-04-15T11:35:35;8.17;;;2.93;;
67965;SDS011;54749;47.850;9.002;2023-04-15T11:38:03;6.60;;;2.70;;
67965;SDS011;54749;47.850;9.002;2023-04-15T11:40:31;7.85;;;2.70;;
67965;SDS011;54749;47.850;9.002;2023-04-15T11:45:35;9.85;;;3.10;;
67965;SDS011;54749;47.850;9.002;2023-04-15T11:48:04;9.23;;;3.05;;
67965;SDS011;54749;47.850;9.002;2023-04-15T11:50:33;9.03;;;3.47;;
67965;SDS011;54749;47.850;9.002;2023-04-15T11:53:01;8.73;;;3.53;;
67965;SDS011;54749;47.850;9.002;2023-04-15T11:55:44;8.05;;;3.10;;
67965;SDS011;54749;47.850;9.002;2023-04-15T12:00:53;9.73;;;3.42;;
67965;SDS011;54749;47.850;9.002;2023-04-15T12:03:26;10.57;;;3.40;;
67965;SDS011;54749;47.850;9.002;2023-04-15T12:11:19;7.57;;;2.50;;
67965;SDS011;54749;47.850;9.002;2023-04-15T12:14:08;7.88;;;2.40;;
67965;SDS011;54749;47.850;9.002;2023-04-15T12:16:37;7.60;;;2.33;;
67965;SDS011;54749;47.850;9.002;2023-04-15T12:19:16;6.88;;;2.00;;
67965;SDS011;54749;47.850;9.002;2023-04-15T12:21:48;6.03;;;2.20;;
67965;SDS011;54749;47.850;9.002;2023-04-15T12:24:18;7.38;;;2.50;;
67965;SDS011;54749;47.850;9.002;2023-04-15T12:26:51;7.35;;;1.98;;
67965;SDS011;54749;47.850;9.002;2023-04-15T12:29:20;6.07;;;1.93;;
67965;SDS011;54749;47.850;9.002;2023-04-15T12:31:58;7.07;;;1.73;;
67965;SDS011;54749;47.850;9.002;2023-04-15T12:34:32;5.50;;;1.88;;
67965;SDS011;54749;47.850;9.002;2023-04-15T12:37:02;5.22;;;1.70;;
67965;SDS011;54749;47.850;9.002;2023-04-15T12:39:31;5.93;;;1.70;;
67965;SDS011;54749;47.850;9.002;2023-04-15T12:42:02;5.03;;;1.50;;
67965;SDS011;54749;47.850;9.002;2023-04-15T12:44:30;4.00;;;1.40;;
67965;SDS011;54749;47.850;9.002;2023-04-15T12:46:58;10.07;;;3.25;;
67965;SDS011;54749;47.850;9.002;2023-04-15T12:49:26;9.80;;;2.97;;
67965;SDS011;54749;47.850;9.002;2023-04-15T12:51:56;7.00;;;1.95;;
67965;SDS011;54749;47.850;9.002;2023-04-15T12:54:25;5.13;;;1.50;;
67965;SDS011;54749;47.850;9.002;2023-04-15T12:56:53;6.78;;;1.80;;
67965;SDS011;54749;47.850;9.002;2023-04-15T12:59:21;4.80;;;1.48;;
67965;SDS011;54749;47.850;9.002;2023-04-15T13:01:50;4.90;;;1.55;;
67965;SDS011;54749;47.850;9.002;2023-04-15T13:04:19;5.95;;;1.50;;
67965;SDS011;54749;47.850;9.002;2023-04-15T13:06:47;7.13;;;1.90;;
67965;SDS011;54749;47.850;9.002;2023-04-15T13:09:14;4.38;;;1.40;;
67965;SDS011;54749;47.850;9.002;2023-04-15T13:11:42;5.53;;;1.70;;
67965;SDS011;54749;47.850;9.002;2023-04-15T13:14:09;7.47;;;1.90;;
67965;SDS011;54749;47.850;9.002;2023-04-15T13:16:40;5.95;;;1.40;;
67965;SDS011;54749;47.850;9.002;2023-04-15T13:19:07;4.60;;;1.60;;
67965;SDS011;54749;47.850;9.002;2023-04-15T13:21:34;5.30;;;1.50;;
67965;SDS011;54749;47.850;9.002;2023-04-15T13:24:02;5.18;;;1.40;;
67965;SDS011;54749;47.850;9.002;2023-04-15T13:26:31;6.13;;;1.77;;
67965;SDS011;54749;47.850;9.002;2023-04-15T13:28:59;6.55;;;1.70;;
67965;SDS011;54749;47.850;9.002;2023-04-15T13:31:27;5.30;;;1.40;;
67965;SDS011;54749;47.850;9.002;2023-04-15T13:33:55;4.15;;;1.40;;
67965;SDS011;54749;47.850;9.002;2023-04-15T13:36:23;5.38;;;1.38;;
67965;SDS011;54749;47.850;9.002;2023-04-15T13:38:50;5.40;;;1.50;;
67965;SDS011;54749;47.850;9.002;2023-04-15T13:41:17;7.65;;;1.70;;
67965;SDS011;54749;47.850;9.002;2023-04-15T13:43:46;5.07;;;1.50;;
67965;SDS011;54749;47.850;9.002;2023-04-15T13:46:13;4.00;;;1.40;;
67965;SDS011;54749;47.850;9.002;2023-04-15T13:48:40;7.30;;;2.42;;
67965;SDS011;54749;47.850;9.002;2023-04-15T13:51:08;4.72;;;1.65;;
67965;SDS011;54749;47.850;9.002;2023-04-15T13:53:35;4.78;;;1.85;;
67965;SDS011;54749;47.850;9.002;2023-04-15T13:56:08;6.43;;;1.60;;
67965;SDS011;54749;47.850;9.002;2023-04-15T13:58:36;4.55;;;1.48;;
67965;SDS011;54749;47.850;9.002;2023-04-15T14:01:04;6.28;;;1.73;;
67965;SDS011;54749;47.850;9.002;2023-04-15T14:03:33;6.72;;;1.67;;
67965;SDS011;54749;47.850;9.002;2023-04-15T14:06:03;4.70;;;1.50;;
67965;SDS011;54749;47.850;9.002;2023-04-15T14:08:31;5.23;;;1.47;;
67965;SDS011;54749;47.850;9.002;2023-04-15T14:10:58;5.95;;;1.90;;
67965;SDS011;54749;47.850;9.002;2023-04-15T14:13:25;7.60;;;2.15;;
67965;SDS011;54749;47.850;9.002;2023-04-15T14:15:53;5.70;;;1.60;;
67965;SDS011;54749;47.850;9.002;2023-04-15T14:18:20;6.55;;;1.60;;
67965;SDS011;54749;47.850;9.002;2023-04-15T14:20:48;5.70;;;1.60;;
67965;SDS011;54749;47.850;9.002;2023-04-15T14:23:15;5.43;;;1.80;;
67965;SDS011;54749;47.850;9.002;2023-04-15T14:25:42;9.27;;;1.80;;
67965;SDS011;54749;47.850;9.002;2023-04-15T14:28:13;6.07;;;1.85;;
67965;SDS011;54749;47.850;9.002;2023-04-15T14:30:40;5.18;;;1.70;;
67965;SDS011;54749;47.850;9.002;2023-04-15T14:33:08;7.13;;;1.80;;
67965;SDS011;54749;47.850;9.002;2023-04-15T14:35:35;5.88;;;1.90;;
67965;SDS011;54749;47.850;9.002;2023-04-15T14:38:02;5.05;;;1.70;;
67965;SDS011;54749;47.850;9.002;2023-04-15T14:40:30;6.18;;;1.85;;
67965;SDS011;54749;47.850;9.002;2023-04-15T14:42:57;7.05;;;1.98;;
67965;SDS011;54749;47.850;9.002;2023-04-15T14:45:24;5.27;;;1.63;;
67965;SDS011;54749;47.850;9.002;2023-04-15T14:47:51;6.28;;;1.65;;
67965;SDS011;54749;47.850;9.002;2023-04-15T14:50:19;7.85;;;2.10;;
67965;SDS011;54749;47.850;9.002;2023-04-15T14:52:46;5.50;;;1.90;;
67965;SDS011;54749;47.850;9.002;2023-04-15T14:55:13;7.20;;;1.98;;
67965;SDS011;54749;47.850;9.002;2023-04-15T14:57:41;6.37;;;1.70;;
67965;SDS011;54749;47.850;9.002;2023-04-15T15:00:09;6.57;;;1.90;;
67965;SDS011;54749;47.850;9.002;2023-04-15T15:02:41;6.90;;;2.03;;
67965;SDS011;54749;47.850;9.002;2023-04-15T15:05:09;8.48;;;2.15;;
67965;SDS011;54749;47.850;9.002;2023-04-15T15:07:38;5.88;;;2.03;;
67965;SDS011;54749;47.850;9.002;2023-04-15T15:10:07;5.37;;;1.80;;
67965;SDS011;54749;47.850;9.002;2023-04-15T15:12:34;9.55;;;2.22;;
67965;SDS011;54749;47.850;9.002;2023-04-15T15:15:02;4.95;;;1.92;;
67965;SDS011;54749;47.850;9.002;2023-04-15T15:17:45;5.95;;;2.00;;
67965;SDS011;54749;47.850;9.002;2023-04-15T15:20:12;7.68;;;2.33;;